sensor_id;sensor_type;location;lat;lon;timestamp;P1;durP1;ratioP1;P2;durP2;ratioP2
37657;SDS011;23500;53.268;8.308;2023-02-27T00:02:14;2.67;;;2.47;;
37657;SDS011;23500;53.268;8.308;2023-02-27T00:04:40;2.60;;;2.40;;
37657;SDS011;23500;53.268;8.308;2023-02-27T00:07:05;3.20;;;2.40;;
37657;SDS011;23500;53.268;8.308;2023-02-27T00:09:32;2.53;;;2.20;;
37657;SDS011;23500;53.268;8.308;2023-02-27T00:11:58;2.30;;;2.10;;
37657;SDS011;23500;53.268;8.308;2023-02-27T00:14:24;2.93;;;2.60;;
37657;SDS011;23500;53.268;8.308;2023-02-27T00:16:49;2.50;;;2.20;;
37657;SDS011;23500;53.268;8.308;2023-02-27T00:19:15;2.40;;;2.20;;
37657;SDS011;23500;53.268;8.308;2023-02-27T00:21:41;2.60;;;2.40;;
37657;SDS011;23500;53.268;8.308;2023-02-27T00:24:08;2.60;;;2.40;;
37657;SDS011;23500;53.268;8.308;2023-02-27T00:26:34;2.50;;;2.23;;
37657;SDS011;23500;53.268;8.308;2023-02-27T00:29:00;2.83;;;2.57;;
37657;SDS011;23500;53.268;8.308;2023-02-27T00:31:26;3.63;;;2.53;;
37657;SDS011;23500;53.268;8.308;2023-02-27T00:33:52;2.83;;;2.63;;
37657;SDS011;23500;53.268;8.308;2023-02-27T00:36:17;3.23;;;2.60;;
37657;SDS011;23500;53.268;8.308;2023-02-27T00:38:43;3.13;;;2.33;;
37657;SDS011;23500;53.268;8.308;2023-02-27T00:41:09;2.30;;;2.10;;
37657;SDS011;23500;53.268;8.308;2023-02-27T00:43:34;2.30;;;2.10;;
37657;SDS011;23500;53.268;8.308;2023-02-27T00:46:00;2.70;;;2.17;;
37657;SDS011;23500;53.268;8.308;2023-02-27T00:48:26;2.40;;;2.20;;
37657;SDS011;23500;53.268;8.308;2023-02-27T00:50:51;2.53;;;2.33;;
37657;SDS011;23500;53.268;8.308;2023-02-27T00:53:17;2.00;;;1.90;;
37657;SDS011;23500;53.268;8.308;2023-02-27T00:55:43;2.43;;;2.23;;
37657;SDS011;23500;53.268;8.308;2023-02-27T00:58:08;2.45;;;2.25;;
37657;SDS011;23500;53.268;8.308;2023-02-27T01:00:34;2.60;;;2.00;;
37657;SDS011;23500;53.268;8.308;2023-02-27T01:03:00;2.05;;;1.95;;
37657;SDS011;23500;53.268;8.308;2023-02-27T01:05:25;1.90;;;1.80;;
37657;SDS011;23500;53.268;8.308;2023-02-27T01:07:51;2.22;;;2.03;;
37657;SDS011;23500;53.268;8.308;2023-02-27T01:10:18;2.25;;;2.05;;
37657;SDS011;23500;53.268;8.308;2023-02-27T01:12:44;2.30;;;2.10;;
37657;SDS011;23500;53.268;8.308;2023-02-27T01:15:10;2.38;;;2.17;;
37657;SDS011;23500;53.268;8.308;2023-02-27T01:17:36;2.38;;;2.00;;
37657;SDS011;23500;53.268;8.308;2023-02-27T01:20:02;1.77;;;1.67;;
37657;SDS011;23500;53.268;8.308;2023-02-27T01:22:30;2.10;;;1.90;;
37657;SDS011;23500;53.268;8.308;2023-02-27T01:24:56;2.10;;;1.90;;
37657;SDS011;23500;53.268;8.308;2023-02-27T01:27:22;1.88;;;1.73;;
37657;SDS011;23500;53.268;8.308;2023-02-27T01:29:48;1.85;;;1.73;;
37657;SDS011;23500;53.268;8.308;2023-02-27T01:32:14;2.10;;;1.90;;
37657;SDS011;23500;53.268;8.308;2023-02-27T01:34:39;2.20;;;2.00;;
37657;SDS011;23500;53.268;8.308;2023-02-27T01:37:05;2.20;;;2.00;;
37657;SDS011;23500;53.268;8.308;2023-02-27T01:39:31;2.30;;;2.10;;
37657;SDS011;23500;53.268;8.308;2023-02-27T01:41:57;2.00;;;1.90;;
37657;SDS011;23500;53.268;8.308;2023-02-27T01:44:27;2.00;;;1.70;;
37657;SDS011;23500;53.268;8.308;2023-02-27T01:46:54;2.13;;;1.92;;
37657;SDS011;23500;53.268;8.308;2023-02-27T01:49:20;1.90;;;1.80;;
37657;SDS011;23500;53.268;8.308;2023-02-27T01:51:56;1.98;;;1.83;;
37657;SDS011;23500;53.268;8.308;2023-02-27T01:54:27;2.25;;;1.90;;
37657;SDS011;23500;53.268;8.308;2023-02-27T01:56:54;2.30;;;2.10;;
37657;SDS011;23500;53.268;8.308;2023-02-27T01:59:21;2.78;;;2.22;;
37657;SDS011;23500;53.268;8.308;2023-02-27T02:01:47;2.90;;;2.13;;
37657;SDS011;23500;53.268;8.308;2023-02-27T02:06:49;1.85;;;1.70;;
37657;SDS011;23500;53.268;8.308;2023-02-27T02:09:19;2.15;;;1.95;;
37657;SDS011;23500;53.268;8.308;2023-02-27T02:11:46;2.38;;;2.15;;
37657;SDS011;23500;53.268;8.308;2023-02-27T02:14:12;2.45;;;2.22;;
37657;SDS011;23500;53.268;8.308;2023-02-27T02:45:50;2.10;;;1.90;;
37657;SDS011;23500;53.268;8.308;2023-02-27T02:48:30;2.00;;;1.80;;
37657;SDS011;23500;53.268;8.308;2023-02-27T02:51:06;1.85;;;1.70;;
37657;SDS011;23500;53.268;8.308;2023-02-27T02:54:24;2.10;;;1.90;;
37657;SDS011;23500;53.268;8.308;2023-02-27T02:57:05;2.08;;;1.98;;
37657;SDS011;23500;53.268;8.308;2023-02-27T03:00:21;2.28;;;2.08;;
37657;SDS011;23500;53.268;8.308;2023-02-27T03:02:33;2.45;;;2.15;;
37657;SDS011;23500;53.268;8.308;2023-02-27T03:05:08;2.28;;;2.08;;
37657;SDS011;23500;53.268;8.308;2023-02-27T03:07:55;2.20;;;1.70;;
37657;SDS011;23500;53.268;8.308;2023-02-27T03:13:03;2.22;;;2.03;;
37657;SDS011;23500;53.268;8.308;2023-02-27T03:15:35;2.33;;;1.90;;
37657;SDS011;23500;53.268;8.308;2023-02-27T03:18:17;2.25;;;2.05;;
37657;SDS011;23500;53.268;8.308;2023-02-27T03:20:53;2.10;;;1.88;;
37657;SDS011;23500;53.268;8.308;2023-02-27T03:23:26;2.28;;;2.08;;
37657;SDS011;23500;53.268;8.308;2023-02-27T03:25:56;2.13;;;1.92;;
37657;SDS011;23500;53.268;8.308;2023-02-27T03:28:24;2.60;;;2.10;;
37657;SDS011;23500;53.268;8.308;2023-02-27T03:30:55;2.33;;;1.85;;
37657;SDS011;23500;53.268;8.308;2023-02-27T03:33:34;1.70;;;1.60;;
37657;SDS011;23500;53.268;8.308;2023-02-27T03:46:27;2.10;;;1.90;;
37657;SDS011;23500;53.268;8.308;2023-02-27T03:48:53;1.70;;;1.60;;
37657;SDS011;23500;53.268;8.308;2023-02-27T03:51:20;1.80;;;1.70;;
37657;SDS011;23500;53.268;8.308;2023-02-27T03:53:49;2.25;;;1.85;;
37657;SDS011;23500;53.268;8.308;2023-02-27T03:56:24;1.90;;;1.80;;
37657;SDS011;23500;53.268;8.308;2023-02-27T03:58:54;1.60;;;1.50;;
37657;SDS011;23500;53.268;8.308;2023-02-27T04:01:20;2.00;;;1.80;;
37657;SDS011;23500;53.268;8.308;2023-02-27T04:04:00;2.10;;;1.90;;
37657;SDS011;23500;53.268;8.308;2023-02-27T04:06:31;2.10;;;1.90;;
37657;SDS011;23500;53.268;8.308;2023-02-27T04:17:23;2.17;;;1.83;;
37657;SDS011;23500;53.268;8.308;2023-02-27T04:22:36;2.20;;;2.00;;
37657;SDS011;23500;53.268;8.308;2023-02-27T04:25:16;3.15;;;2.17;;
37657;SDS011;23500;53.268;8.308;2023-02-27T04:35:48;3.25;;;2.03;;
37657;SDS011;23500;53.268;8.308;2023-02-27T04:43:37;1.70;;;1.60;;
37657;SDS011;23500;53.268;8.308;2023-02-27T04:46:05;2.00;;;1.80;;
37657;SDS011;23500;53.268;8.308;2023-02-27T04:48:37;1.90;;;1.80;;
37657;SDS011;23500;53.268;8.308;2023-02-27T04:51:12;1.95;;;1.63;;
37657;SDS011;23500;53.268;8.308;2023-02-27T04:53:45;2.47;;;1.70;;
37657;SDS011;23500;53.268;8.308;2023-02-27T04:56:15;1.67;;;1.58;;
37657;SDS011;23500;53.268;8.308;2023-02-27T04:59:28;1.70;;;1.60;;
37657;SDS011;23500;53.268;8.308;2023-02-27T05:02:01;2.15;;;1.77;;
37657;SDS011;23500;53.268;8.308;2023-02-27T05:04:32;1.77;;;1.67;;
37657;SDS011;23500;53.268;8.308;2023-02-27T05:07:01;1.95;;;1.67;;
37657;SDS011;23500;53.268;8.308;2023-02-27T05:09:37;1.85;;;1.70;;
37657;SDS011;23500;53.268;8.308;2023-02-27T05:12:14;1.95;;;1.63;;
37657;SDS011;23500;53.268;8.308;2023-02-27T05:17:37;2.47;;;1.80;;
37657;SDS011;23500;53.268;8.308;2023-02-27T05:20:13;2.67;;;2.17;;
37657;SDS011;23500;53.268;8.308;2023-02-27T05:25:14;1.80;;;1.70;;
37657;SDS011;23500;53.268;8.308;2023-02-27T05:27:44;1.70;;;1.60;;
37657;SDS011;23500;53.268;8.308;2023-02-27T05:33:04;2.00;;;1.75;;
37657;SDS011;23500;53.268;8.308;2023-02-27T05:35:50;2.15;;;1.95;;
37657;SDS011;23500;53.268;8.308;2023-02-27T05:41:01;2.63;;;1.70;;
37657;SDS011;23500;53.268;8.308;2023-02-27T05:43:37;1.90;;;1.70;;
37657;SDS011;23500;53.268;8.308;2023-02-27T05:46:17;1.80;;;1.70;;
37657;SDS011;23500;53.268;8.308;2023-02-27T05:48:54;1.60;;;1.50;;
37657;SDS011;23500;53.268;8.308;2023-02-27T05:51:26;1.73;;;1.60;;
37657;SDS011;23500;53.268;8.308;2023-02-27T05:53:59;1.95;;;1.83;;
37657;SDS011;23500;53.268;8.308;2023-02-27T05:56:32;1.90;;;1.70;;
37657;SDS011;23500;53.268;8.308;2023-02-27T05:59:02;1.83;;;1.70;;
37657;SDS011;23500;53.268;8.308;2023-02-27T06:01:41;2.00;;;1.55;;
37657;SDS011;23500;53.268;8.308;2023-02-27T06:04:07;2.22;;;1.98;;
37657;SDS011;23500;53.268;8.308;2023-02-27T06:06:33;1.50;;;1.40;;
37657;SDS011;23500;53.268;8.308;2023-02-27T06:09:00;1.58;;;1.48;;
37657;SDS011;23500;53.268;8.308;2023-02-27T06:11:26;1.70;;;1.60;;
37657;SDS011;23500;53.268;8.308;2023-02-27T06:13:52;1.95;;;1.80;;
37657;SDS011;23500;53.268;8.308;2023-02-27T06:16:18;2.25;;;1.90;;
37657;SDS011;23500;53.268;8.308;2023-02-27T06:18:43;2.40;;;1.75;;
37657;SDS011;23500;53.268;8.308;2023-02-27T06:21:09;2.05;;;1.80;;
37657;SDS011;23500;53.268;8.308;2023-02-27T06:23:37;2.25;;;1.70;;
37657;SDS011;23500;53.268;8.308;2023-02-27T06:26:02;2.08;;;1.70;;
37657;SDS011;23500;53.268;8.308;2023-02-27T06:28:28;2.28;;;1.77;;
37657;SDS011;23500;53.268;8.308;2023-02-27T06:30:54;2.30;;;1.75;;
37657;SDS011;23500;53.268;8.308;2023-02-27T06:33:21;2.60;;;1.60;;
37657;SDS011;23500;53.268;8.308;2023-02-27T06:35:48;2.47;;;1.58;;
37657;SDS011;23500;53.268;8.308;2023-02-27T06:38:14;1.92;;;1.65;;
37657;SDS011;23500;53.268;8.308;2023-02-27T06:40:40;2.75;;;1.98;;
37657;SDS011;23500;53.268;8.308;2023-02-27T06:43:06;1.70;;;1.60;;
37657;SDS011;23500;53.268;8.308;2023-02-27T06:45:32;1.70;;;1.60;;
37657;SDS011;23500;53.268;8.308;2023-02-27T06:47:58;1.70;;;1.60;;
37657;SDS011;23500;53.268;8.308;2023-02-27T06:50:23;1.50;;;1.40;;
37657;SDS011;23500;53.268;8.308;2023-02-27T06:52:49;1.88;;;1.63;;
37657;SDS011;23500;53.268;8.308;2023-02-27T06:55:15;2.97;;;1.40;;
37657;SDS011;23500;53.268;8.308;2023-02-27T06:57:45;1.58;;;1.45;;
37657;SDS011;23500;53.268;8.308;2023-02-27T07:00:12;1.40;;;1.30;;
37657;SDS011;23500;53.268;8.308;2023-02-27T07:02:38;1.50;;;1.40;;
37657;SDS011;23500;53.268;8.308;2023-02-27T07:05:05;1.42;;;1.23;;
37657;SDS011;23500;53.268;8.308;2023-02-27T07:07:31;1.75;;;1.65;;
37657;SDS011;23500;53.268;8.308;2023-02-27T07:09:57;1.60;;;1.50;;
37657;SDS011;23500;53.268;8.308;2023-02-27T07:12:23;1.60;;;1.50;;
37657;SDS011;23500;53.268;8.308;2023-02-27T07:14:48;2.10;;;1.92;;
37657;SDS011;23500;53.268;8.308;2023-02-27T07:17:14;1.85;;;1.67;;
37657;SDS011;23500;53.268;8.308;2023-02-27T07:19:40;1.70;;;1.60;;
37657;SDS011;23500;53.268;8.308;2023-02-27T07:22:05;2.30;;;1.70;;
37657;SDS011;23500;53.268;8.308;2023-02-27T07:24:33;2.47;;;2.05;;
37657;SDS011;23500;53.268;8.308;2023-02-27T07:26:59;1.65;;;1.50;;
37657;SDS011;23500;53.268;8.308;2023-02-27T07:29:25;1.77;;;1.60;;
37657;SDS011;23500;53.268;8.308;2023-02-27T07:31:50;1.70;;;1.60;;
37657;SDS011;23500;53.268;8.308;2023-02-27T07:34:16;2.13;;;1.73;;
37657;SDS011;23500;53.268;8.308;2023-02-27T07:36:42;2.35;;;1.88;;
37657;SDS011;23500;53.268;8.308;2023-02-27T07:39:07;1.70;;;1.60;;
37657;SDS011;23500;53.268;8.308;2023-02-27T07:41:34;1.70;;;1.58;;
37657;SDS011;23500;53.268;8.308;2023-02-27T07:44:00;1.42;;;1.33;;
37657;SDS011;23500;53.268;8.308;2023-02-27T07:46:26;1.75;;;1.65;;
37657;SDS011;23500;53.268;8.308;2023-02-27T07:48:52;1.33;;;1.15;;
37657;SDS011;23500;53.268;8.308;2023-02-27T07:51:18;1.60;;;1.50;;
37657;SDS011;23500;53.268;8.308;2023-02-27T07:53:44;1.65;;;1.52;;
37657;SDS011;23500;53.268;8.308;2023-02-27T07:56:09;1.60;;;1.50;;
37657;SDS011;23500;53.268;8.308;2023-02-27T07:58:35;1.80;;;1.60;;
37657;SDS011;23500;53.268;8.308;2023-02-27T08:01:01;1.80;;;1.70;;
37657;SDS011;23500;53.268;8.308;2023-02-27T08:03:26;2.25;;;1.70;;
37657;SDS011;23500;53.268;8.308;2023-02-27T08:05:52;1.42;;;1.33;;
37657;SDS011;23500;53.268;8.308;2023-02-27T08:08:17;1.45;;;1.35;;
37657;SDS011;23500;53.268;8.308;2023-02-27T08:10:43;1.42;;;1.33;;
37657;SDS011;23500;53.268;8.308;2023-02-27T08:13:09;1.70;;;1.60;;
37657;SDS011;23500;53.268;8.308;2023-02-27T08:15:35;2.00;;;1.60;;
37657;SDS011;23500;53.268;8.308;2023-02-27T08:18:00;1.63;;;1.52;;
37657;SDS011;23500;53.268;8.308;2023-02-27T08:20:26;1.50;;;1.40;;
37657;SDS011;23500;53.268;8.308;2023-02-27T08:22:52;1.50;;;1.40;;
37657;SDS011;23500;53.268;8.308;2023-02-27T08:25:17;1.45;;;1.35;;
37657;SDS011;23500;53.268;8.308;2023-02-27T08:27:44;1.58;;;1.30;;
37657;SDS011;23500;53.268;8.308;2023-02-27T08:30:10;1.48;;;1.38;;
37657;SDS011;23500;53.268;8.308;2023-02-27T08:32:36;1.60;;;1.50;;
37657;SDS011;23500;53.268;8.308;2023-02-27T08:35:02;1.70;;;1.58;;
37657;SDS011;23500;53.268;8.308;2023-02-27T08:37:29;1.70;;;1.58;;
37657;SDS011;23500;53.268;8.308;2023-02-27T08:39:54;1.67;;;1.40;;
37657;SDS011;23500;53.268;8.308;2023-02-27T08:42:20;1.48;;;1.38;;
37657;SDS011;23500;53.268;8.308;2023-02-27T08:44:46;1.50;;;1.40;;
37657;SDS011;23500;53.268;8.308;2023-02-27T08:47:14;1.50;;;1.40;;
37657;SDS011;23500;53.268;8.308;2023-02-27T08:49:40;1.73;;;1.63;;
37657;SDS011;23500;53.268;8.308;2023-02-27T08:52:05;1.65;;;1.35;;
37657;SDS011;23500;53.268;8.308;2023-02-27T08:54:33;1.52;;;1.38;;
37657;SDS011;23500;53.268;8.308;2023-02-27T08:57:01;1.92;;;1.40;;
37657;SDS011;23500;53.268;8.308;2023-02-27T08:59:27;1.40;;;1.30;;
37657;SDS011;23500;53.268;8.308;2023-02-27T09:01:53;1.50;;;1.30;;
37657;SDS011;23500;53.268;8.308;2023-02-27T09:04:19;1.58;;;1.48;;
37657;SDS011;23500;53.268;8.308;2023-02-27T09:06:45;1.60;;;1.50;;
37657;SDS011;23500;53.268;8.308;2023-02-27T09:09:11;1.33;;;1.20;;
37657;SDS011;23500;53.268;8.308;2023-02-27T09:11:37;1.48;;;1.38;;
37657;SDS011;23500;53.268;8.308;2023-02-27T09:14:03;1.55;;;1.42;;
37657;SDS011;23500;53.268;8.308;2023-02-27T09:16:29;1.60;;;1.48;;
37657;SDS011;23500;53.268;8.308;2023-02-27T09:18:55;1.33;;;1.23;;
37657;SDS011;23500;53.268;8.308;2023-02-27T09:21:20;1.40;;;1.30;;
37657;SDS011;23500;53.268;8.308;2023-02-27T09:23:48;1.65;;;1.30;;
37657;SDS011;23500;53.268;8.308;2023-02-27T09:26:14;1.50;;;1.30;;
37657;SDS011;23500;53.268;8.308;2023-02-27T09:28:41;1.60;;;1.38;;
37657;SDS011;23500;53.268;8.308;2023-02-27T09:31:07;1.40;;;1.30;;
37657;SDS011;23500;53.268;8.308;2023-02-27T09:33:35;1.98;;;1.55;;
37657;SDS011;23500;53.268;8.308;2023-02-27T09:36:02;1.92;;;1.40;;
37657;SDS011;23500;53.268;8.308;2023-02-27T09:38:29;1.48;;;1.38;;
37657;SDS011;23500;53.268;8.308;2023-02-27T09:40:59;1.63;;;1.42;;
37657;SDS011;23500;53.268;8.308;2023-02-27T09:45:55;1.45;;;1.35;;
37657;SDS011;23500;53.268;8.308;2023-02-27T09:48:26;1.50;;;1.40;;
37657;SDS011;23500;53.268;8.308;2023-02-27T09:50:58;1.70;;;1.30;;
37657;SDS011;23500;53.268;8.308;2023-02-27T09:53:28;1.40;;;1.30;;
37657;SDS011;23500;53.268;8.308;2023-02-27T09:56:06;1.40;;;1.30;;
37657;SDS011;23500;53.268;8.308;2023-02-27T10:01:29;1.40;;;1.25;;
37657;SDS011;23500;53.268;8.308;2023-02-27T10:15:01;1.75;;;1.27;;
37657;SDS011;23500;53.268;8.308;2023-02-27T10:20:24;1.30;;;1.20;;
37657;SDS011;23500;53.268;8.308;2023-02-27T10:22:52;1.20;;;1.10;;
37657;SDS011;23500;53.268;8.308;2023-02-27T10:25:19;1.30;;;1.20;;
37657;SDS011;23500;53.268;8.308;2023-02-27T10:27:47;1.27;;;1.17;;
37657;SDS011;23500;53.268;8.308;2023-02-27T10:33:12;1.45;;;1.35;;
37657;SDS011;23500;53.268;8.308;2023-02-27T10:35:59;1.20;;;1.10;;
37657;SDS011;23500;53.268;8.308;2023-02-27T10:38:28;1.20;;;1.10;;
37657;SDS011;23500;53.268;8.308;2023-02-27T10:41:03;1.25;;;1.15;;
37657;SDS011;23500;53.268;8.308;2023-02-27T10:43:31;1.20;;;1.10;;
37657;SDS011;23500;53.268;8.308;2023-02-27T10:46:06;1.23;;;1.13;;
37657;SDS011;23500;53.268;8.308;2023-02-27T10:48:39;1.20;;;1.10;;
37657;SDS011;23500;53.268;8.308;2023-02-27T10:53:46;1.30;;;1.20;;
37657;SDS011;23500;53.268;8.308;2023-02-27T10:56:15;1.30;;;1.20;;
37657;SDS011;23500;53.268;8.308;2023-02-27T10:58:48;1.25;;;1.15;;
37657;SDS011;23500;53.268;8.308;2023-02-27T11:01:39;1.63;;;1.00;;
37657;SDS011;23500;53.268;8.308;2023-02-27T11:04:07;1.10;;;0.93;;
37657;SDS011;23500;53.268;8.308;2023-02-27T11:06:33;1.45;;;1.13;;
37657;SDS011;23500;53.268;8.308;2023-02-27T11:09:15;1.15;;;1.05;;
37657;SDS011;23500;53.268;8.308;2023-02-27T11:11:49;1.27;;;1.17;;
37657;SDS011;23500;53.268;8.308;2023-02-27T11:14:29;1.98;;;1.20;;
37657;SDS011;23500;53.268;8.308;2023-02-27T11:16:58;1.27;;;1.13;;
37657;SDS011;23500;53.268;8.308;2023-02-27T11:19:28;1.65;;;1.00;;
37657;SDS011;23500;53.268;8.308;2023-02-27T11:22:00;1.05;;;1.05;;
37657;SDS011;23500;53.268;8.308;2023-02-27T11:24:38;1.30;;;1.10;;
37657;SDS011;23500;53.268;8.308;2023-02-27T11:27:21;1.08;;;0.98;;
37657;SDS011;23500;53.268;8.308;2023-02-27T11:32:30;1.52;;;1.20;;
37657;SDS011;23500;53.268;8.308;2023-02-27T11:35:04;1.30;;;1.17;;
37657;SDS011;23500;53.268;8.308;2023-02-27T11:37:43;1.20;;;1.00;;
37657;SDS011;23500;53.268;8.308;2023-02-27T11:40:15;0.90;;;0.90;;
37657;SDS011;23500;53.268;8.308;2023-02-27T11:47:51;1.95;;;1.30;;
37657;SDS011;23500;53.268;8.308;2023-02-27T11:50:37;1.25;;;0.90;;
37657;SDS011;23500;53.268;8.308;2023-02-27T11:53:36;1.92;;;1.10;;
37657;SDS011;23500;53.268;8.308;2023-02-27T11:56:10;1.00;;;0.90;;
37657;SDS011;23500;53.268;8.308;2023-02-27T11:59:03;1.63;;;0.90;;
37657;SDS011;23500;53.268;8.308;2023-02-27T12:01:37;1.10;;;1.00;;
37657;SDS011;23500;53.268;8.308;2023-02-27T12:07:10;2.97;;;1.10;;
37657;SDS011;23500;53.268;8.308;2023-02-27T12:23:33;1.83;;;1.15;;
37657;SDS011;23500;53.268;8.308;2023-02-27T12:26:21;1.75;;;1.10;;
37657;SDS011;23500;53.268;8.308;2023-02-27T12:29:16;2.45;;;1.00;;
37657;SDS011;23500;53.268;8.308;2023-02-27T12:34:37;1.67;;;0.88;;
37657;SDS011;23500;53.268;8.308;2023-02-27T12:37:29;1.20;;;0.88;;
37657;SDS011;23500;53.268;8.308;2023-02-27T12:39:58;1.27;;;1.00;;
37657;SDS011;23500;53.268;8.308;2023-02-27T12:47:37;0.90;;;0.90;;
37657;SDS011;23500;53.268;8.308;2023-02-27T12:55:36;1.73;;;1.02;;
37657;SDS011;23500;53.268;8.308;2023-02-27T12:58:14;1.05;;;0.90;;
37657;SDS011;23500;53.268;8.308;2023-02-27T13:00:49;1.70;;;1.20;;
37657;SDS011;23500;53.268;8.308;2023-02-27T13:03:31;1.00;;;0.80;;
37657;SDS011;23500;53.268;8.308;2023-02-27T13:09:10;1.05;;;0.88;;
37657;SDS011;23500;53.268;8.308;2023-02-27T13:14:45;1.10;;;1.00;;
37657;SDS011;23500;53.268;8.308;2023-02-27T13:17:19;0.93;;;0.88;;
37657;SDS011;23500;53.268;8.308;2023-02-27T13:22:40;3.60;;;1.10;;
37657;SDS011;23500;53.268;8.308;2023-02-27T13:25:13;3.45;;;1.08;;
37657;SDS011;23500;53.268;8.308;2023-02-27T13:27:50;2.30;;;1.05;;
37657;SDS011;23500;53.268;8.308;2023-02-27T13:32:58;1.85;;;1.10;;
37657;SDS011;23500;53.268;8.308;2023-02-27T13:35:42;3.75;;;1.20;;
37657;SDS011;23500;53.268;8.308;2023-02-27T13:38:28;3.67;;;1.27;;
37657;SDS011;23500;53.268;8.308;2023-02-27T13:40:55;2.22;;;1.42;;
37657;SDS011;23500;53.268;8.308;2023-02-27T13:43:28;2.67;;;1.10;;
37657;SDS011;23500;53.268;8.308;2023-02-27T13:46:01;1.38;;;0.93;;
37657;SDS011;23500;53.268;8.308;2023-02-27T13:48:35;3.75;;;1.00;;
37657;SDS011;23500;53.268;8.308;2023-02-27T13:51:07;2.22;;;1.10;;
37657;SDS011;23500;53.268;8.308;2023-02-27T13:53:34;7.32;;;1.20;;
37657;SDS011;23500;53.268;8.308;2023-02-27T13:56:20;2.10;;;1.05;;
37657;SDS011;23500;53.268;8.308;2023-02-27T13:58:47;2.10;;;1.13;;
37657;SDS011;23500;53.268;8.308;2023-02-27T14:01:21;1.23;;;0.80;;
37657;SDS011;23500;53.268;8.308;2023-02-27T14:03:51;2.88;;;1.00;;
37657;SDS011;23500;53.268;8.308;2023-02-27T14:06:20;1.23;;;0.90;;
37657;SDS011;23500;53.268;8.308;2023-02-27T14:08:50;2.30;;;1.05;;
37657;SDS011;23500;53.268;8.308;2023-02-27T14:21:59;1.38;;;1.05;;
37657;SDS011;23500;53.268;8.308;2023-02-27T14:24:38;3.10;;;1.13;;
37657;SDS011;23500;53.268;8.308;2023-02-27T14:27:21;2.15;;;1.15;;
37657;SDS011;23500;53.268;8.308;2023-02-27T14:29:50;1.45;;;1.00;;
37657;SDS011;23500;53.268;8.308;2023-02-27T14:32:25;2.10;;;1.10;;
37657;SDS011;23500;53.268;8.308;2023-02-27T14:34:56;1.67;;;1.20;;
37657;SDS011;23500;53.268;8.308;2023-02-27T14:37:23;2.72;;;1.10;;
37657;SDS011;23500;53.268;8.308;2023-02-27T14:39:51;1.70;;;1.10;;
37657;SDS011;23500;53.268;8.308;2023-02-27T14:45:20;1.35;;;1.00;;
37657;SDS011;23500;53.268;8.308;2023-02-27T14:47:51;1.30;;;0.82;;
37657;SDS011;23500;53.268;8.308;2023-02-27T14:52:59;1.25;;;1.00;;
37657;SDS011;23500;53.268;8.308;2023-02-27T14:55:29;2.95;;;1.30;;
37657;SDS011;23500;53.268;8.308;2023-02-27T15:00:40;1.65;;;1.50;;
37657;SDS011;23500;53.268;8.308;2023-02-27T15:03:23;3.55;;;1.25;;
37657;SDS011;23500;53.268;8.308;2023-02-27T15:05:53;3.13;;;1.83;;
37657;SDS011;23500;53.268;8.308;2023-02-27T15:08:28;2.80;;;1.95;;
37657;SDS011;23500;53.268;8.308;2023-02-27T15:11:12;1.77;;;1.00;;
37657;SDS011;23500;53.268;8.308;2023-02-27T15:13:48;1.10;;;1.00;;
37657;SDS011;23500;53.268;8.308;2023-02-27T15:18:51;1.48;;;1.08;;
37657;SDS011;23500;53.268;8.308;2023-02-27T15:21:23;2.63;;;1.00;;
37657;SDS011;23500;53.268;8.308;2023-02-27T15:23:55;1.33;;;1.10;;
37657;SDS011;23500;53.268;8.308;2023-02-27T15:26:24;3.03;;;1.00;;
37657;SDS011;23500;53.268;8.308;2023-02-27T15:28:54;2.75;;;1.00;;
37657;SDS011;23500;53.268;8.308;2023-02-27T15:31:23;8.00;;;2.35;;
37657;SDS011;23500;53.268;8.308;2023-02-27T15:33:53;7.78;;;2.58;;
37657;SDS011;23500;53.268;8.308;2023-02-27T15:36:27;12.88;;;3.03;;
37657;SDS011;23500;53.268;8.308;2023-02-27T15:41:39;10.90;;;2.65;;
37657;SDS011;23500;53.268;8.308;2023-02-27T15:44:17;11.48;;;3.08;;
37657;SDS011;23500;53.268;8.308;2023-02-27T15:47:03;10.63;;;3.00;;
37657;SDS011;23500;53.268;8.308;2023-02-27T15:49:30;7.30;;;2.85;;
37657;SDS011;23500;53.268;8.308;2023-02-27T15:52:00;9.73;;;3.20;;
37657;SDS011;23500;53.268;8.308;2023-02-27T15:54:33;10.00;;;2.90;;
37657;SDS011;23500;53.268;8.308;2023-02-27T15:57:03;8.60;;;2.47;;
37657;SDS011;23500;53.268;8.308;2023-02-27T15:59:31;10.18;;;3.05;;
37657;SDS011;23500;53.268;8.308;2023-02-27T16:02:01;8.60;;;2.90;;
37657;SDS011;23500;53.268;8.308;2023-02-27T16:04:28;5.40;;;2.70;;
37657;SDS011;23500;53.268;8.308;2023-02-27T16:06:58;7.88;;;2.80;;
37657;SDS011;23500;53.268;8.308;2023-02-27T16:09:30;8.48;;;2.80;;
37657;SDS011;23500;53.268;8.308;2023-02-27T16:14:45;6.65;;;2.60;;
37657;SDS011;23500;53.268;8.308;2023-02-27T16:19:57;8.00;;;2.35;;
37657;SDS011;23500;53.268;8.308;2023-02-27T16:22:25;7.85;;;2.85;;
37657;SDS011;23500;53.268;8.308;2023-02-27T16:24:54;6.85;;;2.17;;
37657;SDS011;23500;53.268;8.308;2023-02-27T16:27:33;8.80;;;2.60;;
37657;SDS011;23500;53.268;8.308;2023-02-27T16:29:59;8.23;;;2.35;;
37657;SDS011;23500;53.268;8.308;2023-02-27T16:32:29;5.75;;;2.55;;
37657;SDS011;23500;53.268;8.308;2023-02-27T16:37:47;7.53;;;2.60;;
37657;SDS011;23500;53.268;8.308;2023-02-27T16:40:18;7.28;;;2.67;;
37657;SDS011;23500;53.268;8.308;2023-02-27T16:42:49;6.60;;;2.50;;
37657;SDS011;23500;53.268;8.308;2023-02-27T16:47:42;5.32;;;2.28;;
37657;SDS011;23500;53.268;8.308;2023-02-27T16:50:12;4.47;;;2.17;;
37657;SDS011;23500;53.268;8.308;2023-02-27T16:52:44;7.68;;;2.70;;
37657;SDS011;23500;53.268;8.308;2023-02-27T16:55:10;7.20;;;2.00;;
37657;SDS011;23500;53.268;8.308;2023-02-27T16:57:36;6.10;;;2.42;;
37657;SDS011;23500;53.268;8.308;2023-02-27T17:00:02;7.03;;;1.92;;
37657;SDS011;23500;53.268;8.308;2023-02-27T17:02:31;5.43;;;2.00;;
37657;SDS011;23500;53.268;8.308;2023-02-27T17:04:58;4.40;;;1.98;;
37657;SDS011;23500;53.268;8.308;2023-02-27T17:07:23;5.85;;;2.10;;
37657;SDS011;23500;53.268;8.308;2023-02-27T17:09:49;4.05;;;1.92;;
37657;SDS011;23500;53.268;8.308;2023-02-27T17:12:15;6.25;;;1.88;;
37657;SDS011;23500;53.268;8.308;2023-02-27T17:14:40;6.20;;;1.75;;
37657;SDS011;23500;53.268;8.308;2023-02-27T17:17:06;5.55;;;1.70;;
37657;SDS011;23500;53.268;8.308;2023-02-27T17:19:34;3.20;;;2.00;;
37657;SDS011;23500;53.268;8.308;2023-02-27T17:22:00;7.32;;;2.03;;
37657;SDS011;23500;53.268;8.308;2023-02-27T17:24:26;4.85;;;1.95;;
37657;SDS011;23500;53.268;8.308;2023-02-27T17:26:51;4.03;;;1.92;;
37657;SDS011;23500;53.268;8.308;2023-02-27T17:29:17;5.82;;;2.55;;
37657;SDS011;23500;53.268;8.308;2023-02-27T17:31:43;3.88;;;2.22;;
37657;SDS011;23500;53.268;8.308;2023-02-27T17:34:09;5.47;;;1.88;;
37657;SDS011;23500;53.268;8.308;2023-02-27T17:36:35;4.03;;;2.03;;
37657;SDS011;23500;53.268;8.308;2023-02-27T17:39:01;3.88;;;1.88;;
37657;SDS011;23500;53.268;8.308;2023-02-27T17:41:29;5.93;;;2.13;;
37657;SDS011;23500;53.268;8.308;2023-02-27T17:43:56;4.57;;;2.03;;
37657;SDS011;23500;53.268;8.308;2023-02-27T17:46:23;3.78;;;1.75;;
37657;SDS011;23500;53.268;8.308;2023-02-27T17:48:49;5.30;;;1.92;;
37657;SDS011;23500;53.268;8.308;2023-02-27T17:51:16;5.57;;;2.33;;
37657;SDS011;23500;53.268;8.308;2023-02-27T17:53:42;4.93;;;2.30;;
37657;SDS011;23500;53.268;8.308;2023-02-27T17:56:09;4.25;;;1.70;;
37657;SDS011;23500;53.268;8.308;2023-02-27T17:58:35;4.40;;;1.98;;
37657;SDS011;23500;53.268;8.308;2023-02-27T18:03:29;3.50;;;1.65;;
37657;SDS011;23500;53.268;8.308;2023-02-27T18:05:55;4.00;;;1.75;;
37657;SDS011;23500;53.268;8.308;2023-02-27T18:08:21;4.70;;;2.00;;
37657;SDS011;23500;53.268;8.308;2023-02-27T18:10:47;3.33;;;1.60;;
37657;SDS011;23500;53.268;8.308;2023-02-27T18:13:14;4.65;;;1.80;;
37657;SDS011;23500;53.268;8.308;2023-02-27T18:15:40;3.55;;;1.75;;
37657;SDS011;23500;53.268;8.308;2023-02-27T18:18:06;5.07;;;1.75;;